createdAt,value
2017-12-02T00:02:08.392Z,1.10
2017-12-02T00:04:36.528Z,1.10
2017-12-02T00:07:03.468Z,1.10
2017-12-02T00:09:31.243Z,1.10
2017-12-02T00:11:58.324Z,1.20
2017-12-02T00:14:25.337Z,1.10
2017-12-02T00:16:52.514Z,0.90
2017-12-02T00:19:19.544Z,0.90
2017-12-02T00:21:46.799Z,0.90
2017-12-02T00:24:13.889Z,1.00
2017-12-02T00:26:40.971Z,1.10
2017-12-02T00:29:08.093Z,1.10
2017-12-02T00:31:35.135Z,1.00
2017-12-02T00:34:03.297Z,1.00
2017-12-02T00:36:32.081Z,0.90
2017-12-02T00:38:59.132Z,0.80
2017-12-02T00:41:26.226Z,0.70
2017-12-02T00:43:53.380Z,0.60
2017-12-02T00:46:20.393Z,0.80
2017-12-02T00:48:47.440Z,0.90
2017-12-02T00:51:14.473Z,0.90
2017-12-02T00:53:41.615Z,0.90
2017-12-02T00:56:09.399Z,0.90
2017-12-02T00:58:36.445Z,0.90
2017-12-02T01:01:03.494Z,1.00
2017-12-02T01:03:30.573Z,0.90
2017-12-02T01:05:57.623Z,0.90
2017-12-02T01:08:24.635Z,0.90
2017-12-02T01:10:51.955Z,0.90
2017-12-02T01:13:19.024Z,0.90
2017-12-02T01:15:46.826Z,1.00
2017-12-02T01:18:13.912Z,1.00
2017-12-02T01:20:40.915Z,1.00
2017-12-02T01:23:07.999Z,1.00
2017-12-02T01:25:35.191Z,1.00
2017-12-02T01:28:02.313Z,1.10
2017-12-02T01:30:29.393Z,1.10
2017-12-02T01:32:57.192Z,1.10
2017-12-02T01:35:24.230Z,1.10
2017-12-02T01:37:53.946Z,1.20
2017-12-02T01:40:23.817Z,1.30
2017-12-02T01:42:54.496Z,1.30
2017-12-02T01:45:24.092Z,1.30
2017-12-02T01:47:54.328Z,1.20
2017-12-02T01:50:23.802Z,1.20
2017-12-02T01:52:53.337Z,1.20
2017-12-02T01:55:23.586Z,1.20
2017-12-02T01:57:51.550Z,1.10
2017-12-02T02:00:18.557Z,1.10
2017-12-02T02:02:46.405Z,1.10
2017-12-02T02:05:13.455Z,1.10
2017-12-02T02:07:41.349Z,1.20
2017-12-02T02:10:08.363Z,1.20
2017-12-02T02:12:35.448Z,1.10
2017-12-02T02:15:02.571Z,1.20
2017-12-02T02:17:29.618Z,1.10
2017-12-02T02:19:56.716Z,1.20
2017-12-02T02:22:23.786Z,1.30
2017-12-02T02:24:50.856Z,1.20
2017-12-02T02:27:17.899Z,1.20
2017-12-02T02:29:44.893Z,1.30
2017-12-02T02:32:11.986Z,1.30
2017-12-02T02:34:39.270Z,1.20
2017-12-02T02:37:07.075Z,1.30
2017-12-02T02:39:34.147Z,1.20
2017-12-02T02:42:01.194Z,1.30
2017-12-02T02:44:28.308Z,1.40
2017-12-02T02:46:56.035Z,1.00
2017-12-02T02:49:23.139Z,1.00
2017-12-02T02:51:50.247Z,1.20
2017-12-02T02:54:17.339Z,1.40
2017-12-02T02:56:44.585Z,1.40
2017-12-02T02:59:11.689Z,1.50
2017-12-02T03:01:38.690Z,1.40
2017-12-02T03:04:05.789Z,1.50
2017-12-02T03:06:32.883Z,1.20
2017-12-02T03:09:00.085Z,1.40
2017-12-02T03:11:27.328Z,1.00
2017-12-02T03:13:54.564Z,0.70
2017-12-02T03:16:21.703Z,0.60
2017-12-02T03:18:49.641Z,0.70
2017-12-02T03:21:17.574Z,0.80
2017-12-02T03:23:44.696Z,0.80
2017-12-02T03:26:11.870Z,0.80
2017-12-02T03:28:39.114Z,1.00
2017-12-02T03:31:06.235Z,1.10
2017-12-02T03:33:33.452Z,1.30
2017-12-02T03:36:00.546Z,1.30
2017-12-02T03:38:27.686Z,1.30
2017-12-02T03:40:55.052Z,1.40
2017-12-02T03:43:22.268Z,1.30
2017-12-02T03:45:49.521Z,1.40
2017-12-02T03:48:16.788Z,0.90
2017-12-02T03:50:44.582Z,1.30
2017-12-02T03:53:11.860Z,1.30
2017-12-02T03:55:39.111Z,1.40
2017-12-02T03:58:06.325Z,1.10
2017-12-02T04:00:33.513Z,1.40
2017-12-02T04:03:00.794Z,1.50
2017-12-02T04:05:28.716Z,1.70
2017-12-02T04:07:55.822Z,1.70
2017-12-02T04:10:23.104Z,1.60
2017-12-02T04:12:50.961Z,0.90
2017-12-02T04:15:18.889Z,0.60
2017-12-02T04:17:46.165Z,0.60
2017-12-02T04:20:13.320Z,0.40
2017-12-02T04:22:40.400Z,0.30
2017-12-02T04:25:08.207Z,0.30
2017-12-02T04:27:35.421Z,0.30
2017-12-02T04:30:02.598Z,0.40
2017-12-02T04:32:29.693Z,0.10
2017-12-02T04:34:56.908Z,0.00
2017-12-02T04:37:24.055Z,-0.20
2017-12-02T04:39:51.169Z,-0.40
2017-12-02T04:42:18.260Z,-0.50
2017-12-02T04:44:45.454Z,-0.40
2017-12-02T04:47:12.719Z,-0.60
2017-12-02T04:49:39.998Z,-0.50
2017-12-02T04:52:07.020Z,-0.40
2017-12-02T04:54:34.206Z,-0.30
2017-12-02T04:57:01.353Z,-0.20
2017-12-02T04:59:28.495Z,-0.60
2017-12-02T05:01:55.590Z,-0.30
2017-12-02T05:04:22.729Z,-0.10
2017-12-02T05:06:49.823Z,-0.40
2017-12-02T05:09:17.604Z,-0.40
2017-12-02T05:11:44.803Z,-0.40
2017-12-02T05:14:11.923Z,-0.20
2017-12-02T05:16:39.074Z,0.00
2017-12-02T05:19:06.314Z,0.00
2017-12-02T05:21:33.385Z,0.10
2017-12-02T05:24:00.651Z,0.30
2017-12-02T05:26:30.663Z,0.20
2017-12-02T05:29:07.364Z,-0.20
2017-12-02T05:31:35.334Z,-0.10
2017-12-02T05:34:02.507Z,-0.20
2017-12-02T05:36:32.696Z,-0.50
2017-12-02T05:38:59.811Z,-0.50
2017-12-02T05:41:27.085Z,-0.50
2017-12-02T05:43:54.282Z,-0.50
2017-12-02T05:46:21.522Z,-0.60
2017-12-02T05:48:48.648Z,-0.60
2017-12-02T05:51:15.799Z,-0.60
2017-12-02T05:53:43.004Z,-0.30
2017-12-02T05:56:09.972Z,-0.80
2017-12-02T05:58:37.207Z,-0.50
2017-12-02T06:01:05.093Z,-1.10
2017-12-02T06:03:32.268Z,-1.10
2017-12-02T06:05:59.511Z,-0.70
2017-12-02T06:08:26.705Z,-1.10
2017-12-02T06:10:54.068Z,-1.00
2017-12-02T06:13:21.291Z,-0.80
2017-12-02T06:15:48.624Z,-0.90
2017-12-02T06:18:15.813Z,-0.70
2017-12-02T06:20:43.022Z,-0.30
2017-12-02T06:23:10.290Z,-0.20
2017-12-02T06:25:37.506Z,-0.30
2017-12-02T06:28:05.352Z,-0.30
2017-12-02T06:30:32.453Z,-0.30
2017-12-02T06:32:59.639Z,-0.40
2017-12-02T06:35:26.728Z,-0.50
2017-12-02T06:37:54.643Z,-0.40
2017-12-02T06:40:21.739Z,-0.40
2017-12-02T06:42:49.552Z,0.10
2017-12-02T06:45:16.767Z,0.10
2017-12-02T06:47:43.861Z,-0.30
2017-12-02T06:50:11.002Z,-0.40
2017-12-02T06:52:38.208Z,-0.20
2017-12-02T06:55:06.183Z,-0.90
2017-12-02T06:57:34.025Z,-1.10
2017-12-02T07:00:01.212Z,-1.10
2017-12-02T07:02:36.823Z,-1.30
2017-12-02T07:05:08.572Z,-1.30
2017-12-02T07:07:36.632Z,-0.70
2017-12-02T07:10:03.924Z,-0.70
2017-12-02T07:12:42.831Z,-0.60
2017-12-02T07:15:11.012Z,-0.40
2017-12-02T07:17:38.892Z,-0.50
2017-12-02T07:20:11.860Z,-0.40
2017-12-02T07:22:39.183Z,-0.30
2017-12-02T07:25:09.722Z,-0.20
2017-12-02T07:27:41.027Z,-0.10
2017-12-02T07:30:09.074Z,0.10
2017-12-02T07:32:38.574Z,-0.40
2017-12-02T07:35:05.667Z,-0.40
2017-12-02T07:37:34.406Z,-0.50
2017-12-02T07:40:02.335Z,-0.20
2017-12-02T07:42:33.673Z,-0.30
2017-12-02T07:45:00.970Z,-0.40
2017-12-02T07:47:28.178Z,-0.40
2017-12-02T07:49:57.886Z,-0.50
2017-12-02T07:52:28.373Z,-0.60
2017-12-02T07:54:56.390Z,-0.20
2017-12-02T07:57:25.330Z,-0.30
2017-12-02T07:59:58.996Z,-0.30
2017-12-02T08:02:36.736Z,-0.40
2017-12-02T08:05:03.933Z,-0.50
2017-12-02T08:07:31.842Z,-0.60
2017-12-02T08:09:58.910Z,-0.60
2017-12-02T08:12:26.110Z,-0.30
2017-12-02T08:15:05.392Z,-0.20
2017-12-02T08:17:33.404Z,-0.30
2017-12-02T08:20:01.367Z,-0.30
2017-12-02T08:22:28.536Z,-0.30
2017-12-02T08:24:55.674Z,-0.50
2017-12-02T08:27:23.071Z,-0.80
2017-12-02T08:29:50.172Z,-0.30
2017-12-02T08:32:18.080Z,0.40
2017-12-02T08:34:45.202Z,0.30
2017-12-02T08:37:13.246Z,0.40
2017-12-02T08:39:40.404Z,0.40
2017-12-02T08:42:07.512Z,0.50
2017-12-02T08:44:50.325Z,0.80
2017-12-02T08:47:19.161Z,0.80
2017-12-02T08:49:46.356Z,0.80
2017-12-02T08:52:13.486Z,0.50
2017-12-02T08:54:44.750Z,0.50
2017-12-02T08:57:11.948Z,0.50
2017-12-02T08:59:39.069Z,0.90
2017-12-02T09:02:06.189Z,0.90
2017-12-02T09:04:34.715Z,1.20
2017-12-02T09:07:02.283Z,1.20
2017-12-02T09:09:35.515Z,0.70
2017-12-02T09:12:11.029Z,0.80
2017-12-02T09:14:49.084Z,1.10
2017-12-02T09:17:20.831Z,1.40
2017-12-02T09:19:52.948Z,1.40
2017-12-02T09:22:27.336Z,1.20
2017-12-02T09:24:59.103Z,0.10
2017-12-02T09:27:36.367Z,0.10
2017-12-02T09:30:11.015Z,-0.10
2017-12-02T09:32:47.360Z,0.30
2017-12-02T09:35:15.737Z,0.80
2017-12-02T09:37:42.915Z,0.80
2017-12-02T09:40:10.751Z,0.90
2017-12-02T09:42:39.037Z,0.80
2017-12-02T09:45:14.768Z,1.20
2017-12-02T09:47:45.178Z,1.70
2017-12-02T09:50:18.308Z,1.80
2017-12-02T09:52:47.638Z,1.60
2017-12-02T09:55:16.395Z,2.00
2017-12-02T09:57:43.501Z,2.10
2017-12-02T10:00:13.298Z,2.10
2017-12-02T10:02:44.454Z,2.10
2017-12-02T10:05:15.204Z,1.70
2017-12-02T10:07:47.361Z,2.00
2017-12-02T10:10:16.824Z,1.60
2017-12-02T10:12:50.535Z,1.00
2017-12-02T10:15:17.732Z,1.40
2017-12-02T10:17:53.439Z,1.70
2017-12-02T10:20:27.233Z,2.10
2017-12-02T10:22:58.141Z,2.20
2017-12-02T10:25:33.888Z,2.30
2017-12-02T10:28:13.046Z,2.50
2017-12-02T10:30:43.308Z,1.70
2017-12-02T10:33:13.096Z,0.90
2017-12-02T10:35:47.583Z,1.10
2017-12-02T10:38:24.828Z,1.60
2017-12-02T10:40:55.364Z,1.40
2017-12-02T10:43:23.076Z,1.60
2017-12-02T10:45:50.430Z,1.80
2017-12-02T10:48:17.697Z,1.90
2017-12-02T10:50:44.858Z,2.10
2017-12-02T10:53:11.978Z,1.60
2017-12-02T10:55:39.145Z,1.60
2017-12-02T10:58:06.303Z,1.70
2017-12-02T11:00:33.468Z,1.40
2017-12-02T11:03:01.256Z,1.20
2017-12-02T11:05:28.332Z,1.20
2017-12-02T11:07:55.501Z,1.50
2017-12-02T11:10:22.478Z,1.80
2017-12-02T11:12:49.799Z,1.60
2017-12-02T11:15:16.925Z,1.80
2017-12-02T11:17:47.119Z,1.90
2017-12-02T11:20:15.807Z,2.10
2017-12-02T11:22:43.046Z,2.10
2017-12-02T11:25:11.169Z,1.70
2017-12-02T11:27:39.071Z,1.40
2017-12-02T11:30:07.150Z,2.00
2017-12-02T11:32:35.547Z,2.00
2017-12-02T11:35:03.386Z,1.70
2017-12-02T11:37:33.537Z,1.70
2017-12-02T11:40:02.684Z,2.00
2017-12-02T11:42:32.421Z,2.00
2017-12-02T11:45:05.061Z,2.30
2017-12-02T11:47:34.983Z,2.30
2017-12-02T11:50:02.039Z,2.30
2017-12-02T11:52:29.903Z,2.10
2017-12-02T11:54:57.782Z,2.20
2017-12-02T11:57:27.678Z,2.20
2017-12-02T11:59:54.656Z,2.40
2017-12-02T12:02:21.877Z,2.30
2017-12-02T12:04:48.894Z,2.20
2017-12-02T12:07:16.900Z,1.90
2017-12-02T12:09:43.890Z,1.90
2017-12-02T12:12:10.991Z,2.20
2017-12-02T12:14:38.035Z,1.90
2017-12-02T12:17:05.221Z,1.50
2017-12-02T12:19:34.580Z,1.50
2017-12-02T12:22:08.909Z,1.60
2017-12-02T12:24:40.576Z,1.90
2017-12-02T12:27:11.297Z,1.90
2017-12-02T12:29:41.473Z,2.00
2017-12-02T12:32:08.484Z,1.70
2017-12-02T12:34:35.618Z,1.40
2017-12-02T12:37:09.590Z,1.30
2017-12-02T12:39:37.275Z,1.20
2017-12-02T12:42:04.285Z,1.60
2017-12-02T12:44:31.372Z,1.60
2017-12-02T12:47:01.466Z,1.40
2017-12-02T12:49:29.973Z,1.70
2017-12-02T12:51:59.494Z,1.50
2017-12-02T12:54:27.878Z,1.90
2017-12-02T12:56:56.068Z,1.90
2017-12-02T12:59:24.200Z,1.90
2017-12-02T13:01:51.597Z,2.00
2017-12-02T13:04:20.446Z,2.00
2017-12-02T13:06:47.532Z,2.00
2017-12-02T13:09:17.885Z,1.80
2017-12-02T13:11:46.093Z,2.10
2017-12-02T13:14:14.076Z,2.10
2017-12-02T13:16:40.966Z,2.00
2017-12-02T13:19:10.714Z,1.30
2017-12-02T13:21:37.864Z,1.10
2017-12-02T13:24:04.740Z,1.30
2017-12-02T13:26:32.361Z,1.30
2017-12-02T13:28:59.297Z,1.20
2017-12-02T13:31:26.232Z,1.10
2017-12-02T13:33:53.108Z,1.50
2017-12-02T13:36:20.047Z,1.40
2017-12-02T13:38:47.147Z,1.00
2017-12-02T13:41:14.860Z,1.20
2017-12-02T13:43:41.846Z,1.20
2017-12-02T13:46:08.765Z,1.40
2017-12-02T13:48:35.655Z,1.30
2017-12-02T13:51:02.605Z,1.30
2017-12-02T13:53:29.503Z,1.50
2017-12-02T13:55:56.432Z,1.70
2017-12-02T13:58:34.088Z,1.70
2017-12-02T14:01:01.176Z,1.00
2017-12-02T14:03:28.089Z,1.50
2017-12-02T14:05:55.135Z,1.50
2017-12-02T14:08:22.451Z,1.60
2017-12-02T14:10:52.231Z,1.20
2017-12-02T14:13:20.956Z,1.20
2017-12-02T14:15:48.187Z,1.50
2017-12-02T14:18:15.816Z,1.70
2017-12-02T14:20:42.682Z,1.80
2017-12-02T14:23:09.665Z,1.50
2017-12-02T14:25:36.531Z,1.40
2017-12-02T14:28:04.231Z,1.40
2017-12-02T14:30:31.236Z,1.30
2017-12-02T14:32:58.855Z,1.00
2017-12-02T14:35:25.872Z,1.00
2017-12-02T14:37:52.880Z,1.40
2017-12-02T14:40:19.768Z,1.50
2017-12-02T14:42:46.796Z,1.30
2017-12-02T14:45:14.576Z,1.30
2017-12-02T14:47:41.448Z,1.30
2017-12-02T14:50:08.440Z,1.00
2017-12-02T14:52:36.096Z,1.10
2017-12-02T14:55:03.791Z,1.30
2017-12-02T14:57:30.712Z,1.30
2017-12-02T14:59:57.582Z,1.30
2017-12-02T15:02:24.552Z,1.20
2017-12-02T15:04:51.411Z,1.30
2017-12-02T15:07:18.274Z,1.40
2017-12-02T15:09:45.240Z,1.30
2017-12-02T15:12:12.379Z,1.40
2017-12-02T15:14:40.260Z,1.50
2017-12-02T15:17:07.985Z,1.60
2017-12-02T15:19:34.982Z,1.50
2017-12-02T15:22:02.659Z,1.40
2017-12-02T15:24:29.512Z,1.40
2017-12-02T15:26:59.166Z,1.50
2017-12-02T15:29:34.972Z,1.60
2017-12-02T15:32:04.699Z,1.60
2017-12-02T15:34:32.917Z,1.50
2017-12-02T15:37:15.226Z,1.50
2017-12-02T15:39:46.547Z,1.50
2017-12-02T15:42:17.700Z,1.30
2017-12-02T15:44:48.177Z,1.30
2017-12-02T15:47:17.584Z,1.30
2017-12-02T15:49:45.318Z,1.30
2017-12-02T15:52:25.292Z,1.30
2017-12-02T15:55:03.687Z,1.30
2017-12-02T15:57:37.839Z,1.30
2017-12-02T16:00:05.688Z,1.30
2017-12-02T16:02:45.419Z,1.30
2017-12-02T16:05:16.141Z,1.30
2017-12-02T16:07:52.572Z,1.30
2017-12-02T16:10:30.129Z,1.40
2017-12-02T16:13:10.904Z,1.40
2017-12-02T16:15:39.189Z,1.40
2017-12-02T16:18:20.189Z,1.40
2017-12-02T16:20:57.880Z,1.50
2017-12-02T16:23:37.485Z,1.50
2017-12-02T16:26:04.943Z,1.50
2017-12-02T16:28:44.038Z,1.50
2017-12-02T16:34:08.896Z,1.50
2017-12-02T16:36:48.967Z,1.50
2017-12-02T16:39:30.244Z,1.40
2017-12-02T16:42:03.711Z,1.40
2017-12-02T16:44:32.351Z,1.40
2017-12-02T16:47:08.673Z,1.50
2017-12-02T16:49:50.245Z,1.50
2017-12-02T16:52:29.336Z,1.20
2017-12-02T16:54:59.620Z,1.40
2017-12-02T16:57:37.793Z,1.40
2017-12-02T17:00:13.235Z,1.30
2017-12-02T17:02:51.431Z,1.30
2017-12-02T17:05:29.358Z,1.30
2017-12-02T17:08:07.588Z,1.30
2017-12-02T17:10:41.830Z,1.30
2017-12-02T17:13:13.144Z,1.50
2017-12-02T17:15:45.055Z,1.50
2017-12-02T17:18:17.296Z,1.50
2017-12-02T17:20:46.003Z,1.50
2017-12-02T17:23:13.263Z,1.40
2017-12-02T17:25:40.912Z,1.40
2017-12-02T17:28:09.386Z,1.40
2017-12-02T17:30:37.523Z,1.40
2017-12-02T17:33:10.102Z,1.40
2017-12-02T17:35:40.760Z,1.40
2017-12-02T17:38:16.246Z,1.40
2017-12-02T17:40:52.849Z,1.40
2017-12-02T17:43:23.225Z,1.40
2017-12-02T17:45:53.439Z,1.50
2017-12-02T17:48:25.065Z,1.50
2017-12-02T17:51:02.876Z,1.60
2017-12-02T17:53:34.954Z,1.50
2017-12-02T17:56:08.425Z,1.50
2017-12-02T17:58:38.584Z,1.50
2017-12-02T18:01:06.251Z,1.50
2017-12-02T18:03:33.168Z,1.60
2017-12-02T18:06:00.102Z,1.50
2017-12-02T18:08:27.072Z,1.50
2017-12-02T18:10:53.961Z,1.50
2017-12-02T18:13:20.916Z,1.50
2017-12-02T18:15:47.803Z,1.40
2017-12-02T18:18:14.680Z,1.40
2017-12-02T18:20:42.356Z,1.50
2017-12-02T18:23:09.212Z,1.50
2017-12-02T18:25:36.138Z,1.40
2017-12-02T18:28:03.798Z,1.50
2017-12-02T18:30:31.455Z,1.60
2017-12-02T18:32:58.470Z,1.60
2017-12-02T18:35:25.464Z,1.70
2017-12-02T18:37:53.184Z,1.70
2017-12-02T18:40:20.078Z,1.70
2017-12-02T18:42:47.697Z,1.80
2017-12-02T18:45:14.741Z,1.80
2017-12-02T18:47:41.794Z,1.80
2017-12-02T18:50:08.737Z,1.80
2017-12-02T18:52:35.711Z,1.90
2017-12-02T18:55:03.368Z,1.80
2017-12-02T18:57:30.519Z,1.80
2017-12-02T18:59:57.519Z,1.90
2017-12-02T19:02:24.423Z,1.90
2017-12-02T19:04:51.356Z,1.90
2017-12-02T19:07:18.273Z,1.90
2017-12-02T19:09:45.229Z,1.90
2017-12-02T19:12:12.139Z,1.90
2017-12-02T19:14:39.137Z,1.80
2017-12-02T19:17:06.076Z,1.80
2017-12-02T19:19:33.142Z,1.80
2017-12-02T19:22:00.128Z,1.70
2017-12-02T19:24:27.004Z,1.70
2017-12-02T19:26:53.860Z,1.70
2017-12-02T19:29:20.766Z,1.70
2017-12-02T19:31:47.661Z,1.70
2017-12-02T19:34:14.656Z,1.70
2017-12-02T19:36:41.699Z,1.70
2017-12-02T19:39:08.645Z,1.80
2017-12-02T19:41:35.582Z,1.80
2017-12-02T19:44:03.343Z,1.80
2017-12-02T19:46:31.069Z,1.80
2017-12-02T19:48:58.015Z,1.80
2017-12-02T19:51:25.978Z,1.80
2017-12-02T19:53:53.979Z,1.90
2017-12-02T19:56:21.670Z,1.90
2017-12-02T19:58:50.405Z,1.90
2017-12-02T20:01:17.395Z,1.90
2017-12-02T20:03:49.571Z,1.90
2017-12-02T20:06:16.611Z,2.00
2017-12-02T20:08:44.121Z,1.90
2017-12-02T20:11:11.362Z,1.80
2017-12-02T20:13:38.521Z,1.90
2017-12-02T20:16:08.519Z,1.90
2017-12-02T20:18:36.715Z,1.90
2017-12-02T20:21:03.696Z,2.00
2017-12-02T20:23:39.758Z,1.90
2017-12-02T20:26:13.182Z,2.00
2017-12-02T20:28:46.944Z,1.90
2017-12-02T20:31:17.893Z,1.90
2017-12-02T20:33:54.667Z,1.90
2017-12-02T20:36:30.727Z,1.90
2017-12-02T20:39:02.391Z,1.80
2017-12-02T20:41:38.968Z,1.90
2017-12-02T20:44:17.657Z,1.90
2017-12-02T20:46:45.938Z,1.90
2017-12-02T20:49:20.358Z,1.90
2017-12-02T20:51:52.563Z,1.80
2017-12-02T20:54:26.667Z,1.90
2017-12-02T20:56:59.232Z,1.90
2017-12-02T20:59:35.585Z,2.00
2017-12-02T21:02:03.279Z,2.00
2017-12-02T21:04:33.733Z,2.10
2017-12-02T21:07:03.488Z,2.20
2017-12-02T21:09:31.965Z,2.20
2017-12-02T21:12:00.767Z,2.10
2017-12-02T21:14:28.687Z,2.10
2017-12-02T21:16:58.371Z,2.00
2017-12-02T21:19:27.339Z,2.00
2017-12-02T21:21:55.175Z,2.00
2017-12-02T21:24:23.032Z,2.10
2017-12-02T21:26:49.994Z,2.10
2017-12-02T21:29:17.097Z,2.10
2017-12-02T21:31:44.761Z,2.20
2017-12-02T21:34:13.171Z,2.20
2017-12-02T21:36:42.042Z,2.20
2017-12-02T21:39:10.690Z,2.10
2017-12-02T21:41:37.775Z,2.10
2017-12-02T21:44:07.850Z,2.10
2017-12-02T21:46:37.598Z,2.10
2017-12-02T21:49:06.879Z,2.00
2017-12-02T21:51:34.047Z,2.00
2017-12-02T21:54:00.984Z,2.00
2017-12-02T21:56:31.307Z,2.00
2017-12-02T21:59:00.512Z,2.00
2017-12-02T22:01:29.442Z,2.10
2017-12-02T22:03:56.538Z,2.00
2017-12-02T22:06:26.789Z,1.90
2017-12-02T22:08:56.718Z,2.00
2017-12-02T22:11:25.323Z,2.00
2017-12-02T22:13:52.348Z,2.10
2017-12-02T22:16:20.100Z,2.10
2017-12-02T22:18:47.223Z,2.00
2017-12-02T22:21:14.171Z,2.10
2017-12-02T22:23:43.356Z,2.10
2017-12-02T22:26:10.738Z,2.10
2017-12-02T22:28:47.273Z,2.10
2017-12-02T22:31:17.284Z,2.10
2017-12-02T22:33:46.588Z,2.10
2017-12-02T22:36:27.797Z,2.00
2017-12-02T22:38:56.016Z,2.10
2017-12-02T22:41:36.842Z,2.00
2017-12-02T22:44:16.737Z,2.00
2017-12-02T22:46:44.912Z,2.00
2017-12-02T22:49:19.843Z,2.00
2017-12-02T22:52:00.421Z,2.10
2017-12-02T22:54:40.408Z,2.00
2017-12-02T22:57:20.421Z,2.00
2017-12-02T22:59:48.248Z,2.10
2017-12-02T23:02:15.682Z,2.00
2017-12-02T23:04:52.675Z,2.00
2017-12-02T23:07:31.550Z,2.00
2017-12-02T23:10:02.215Z,2.00
2017-12-02T23:12:37.816Z,2.00
2017-12-02T23:15:17.794Z,2.00
2017-12-02T23:17:52.715Z,2.10
2017-12-02T23:20:27.100Z,2.10
2017-12-02T23:23:06.344Z,2.10
2017-12-02T23:25:46.487Z,2.10
2017-12-02T23:28:13.484Z,2.10
2017-12-02T23:30:40.469Z,2.10
2017-12-02T23:33:07.439Z,2.20
2017-12-02T23:35:34.319Z,2.10
2017-12-02T23:38:01.972Z,2.10
2017-12-02T23:40:32.956Z,2.10
2017-12-02T23:43:00.093Z,2.10
2017-12-02T23:45:29.204Z,2.10
2017-12-02T23:48:00.294Z,2.20
2017-12-02T23:50:27.479Z,2.20
2017-12-02T23:52:54.949Z,2.20
2017-12-02T23:55:24.846Z,2.20
2017-12-02T23:57:56.652Z,2.20
